Terminal Aerodrome Forecast
Issued by NWS

Home | Current Version | Previous Version | Text Only | Print | Product List | Glossary On
Versions: 1 2 3 4 5 6 7 8 9 10 11 12 13 14 15 16 17 18 19 20 21 22 23 24 25 26 27 28 29
023
FTUS44 KEWX 220528
TAFSSF
TAF
KSSF 220528Z 2206/2306 33011KT P6SM SCT020
     FM220700 01012KT P6SM SCT020 SCT250
     FM222300 05008KT P6SM SCT250=

USA.gov is the U.S. government's official web portal to all federal, state and local government web resources and services.